Time;durP1;ratioP1;P1;durP2;ratioP2;P2;SDS_P1;SDS_P2;PMS_P1;PMS_P2;Temp;Humidity;BMP_temperature;BMP_pressure;BME280_temperature;BME280_humidity;BME280_pressure;Samples;Min_cycle;Max_cycle;Signal;HPM_P1;HPM_P2
2021/01/16 00:00:56;;;;;;;22.45;13.60;;;;;;;3.01;50.78;102563.88;5116014;28;20055;-63
2021/01/16 00:03:23;;;;;;;20.25;12.23;;;;;;;2.87;50.82;102559.56;5116329;28;20478;-65
2021/01/16 00:05:52;;;;;;;20.80;12.88;;;;;;;3.04;50.93;102558.00;5116075;28;20043;-65
2021/01/16 00:08:23;;;;;;;19.48;13.00;;;;;;;3.11;50.76;102551.47;5116683;28;20158;-67
2021/01/16 00:10:54;;;;;;;22.55;13.77;;;;;;;3.28;50.39;102547.16;5115717;28;20051;-64
2021/01/16 00:13:25;;;;;;;21.98;13.77;;;;;;;3.33;50.21;102539.16;5115937;28;20364;-65
2021/01/16 00:15:53;;;;;;;25.98;14.63;;;;;;;3.37;50.61;102540.38;5116007;28;20066;-64
2021/01/16 00:18:22;;;;;;;21.13;13.55;;;;;;;3.24;50.83;102537.75;5115603;28;20044;-63
2021/01/16 00:20:54;;;;;;;22.42;14.80;;;;;;;3.21;51.00;102537.34;5116707;28;20387;-63
2021/01/16 00:23:22;;;;;;;20.58;13.32;;;;;;;3.11;50.99;102540.59;5116261;28;20051;-63
2021/01/16 00:25:50;;;;;;;25.48;15.15;;;;;;;3.18;51.01;102535.94;5115212;28;20047;-64
2021/01/16 00:28:22;;;;;;;21.33;13.45;;;;;;;3.17;50.92;102545.13;5115683;28;20054;-64
2021/01/16 00:30:50;;;;;;;23.70;14.73;;;;;;;3.32;50.54;102542.09;5116626;28;20040;-64
2021/01/16 00:33:27;;;;;;;23.40;14.75;;;;;;;3.19;51.00;102537.56;5117358;28;20048;-64
2021/01/16 00:35:55;;;;;;;24.67;15.63;;;;;;;3.00;51.77;102535.81;5115414;28;20062;-68
2021/01/16 00:38:27;;;;;;;23.48;14.93;;;;;;;3.23;51.41;102537.97;5114459;28;20046;-63
2021/01/16 00:40:55;;;;;;;28.25;15.32;;;;;;;3.04;51.78;102536.22;5115202;28;20056;-64
2021/01/16 00:43:21;;;;;;;23.73;15.20;;;;;;;3.19;51.28;102536.78;5097017;28;20059;-64
2021/01/16 00:45:51;;;;;;;22.70;14.93;;;;;;;2.99;51.62;102536.06;5096231;28;20047;-64
2021/01/16 00:48:23;;;;;;;21.90;13.82;;;;;;;2.91;51.94;102539.03;5114000;28;20048;-63
2021/01/16 00:50:54;;;;;;;21.08;13.63;;;;;;;3.06;51.79;102536.84;5079910;28;20055;-63
2021/01/16 00:53:28;;;;;;;25.75;15.45;;;;;;;2.80;52.55;102531.56;5096865;28;20043;-62
2021/01/16 00:55:59;;;;;;;24.60;15.18;;;;;;;2.92;52.29;102529.81;5114187;28;20391;-63
2021/01/16 00:58:29;;;;;;;23.17;14.57;;;;;;;3.16;51.64;102520.84;5096687;28;20060;-62
2021/01/16 01:01:18;;;;;;;36.05;21.75;;;;;;;3.27;54.26;102518.28;5083309;28;20483;-64
2021/01/16 01:03:46;;;;;;;34.20;21.52;;;;;;;3.03;56.41;102538.09;5096495;28;20547;-64
2021/01/16 01:06:13;;;;;;;38.90;22.30;;;;;;;2.97;56.59;102532.72;5114845;28;20448;-63
2021/01/16 01:08:40;;;;;;;38.40;22.30;;;;;;;2.69;56.90;102529.53;5114795;28;20051;-62
2021/01/16 01:11:07;;;;;;;33.25;21.05;;;;;;;2.94;56.79;102525.84;5114623;28;20052;-66
2021/01/16 01:13:35;;;;;;;38.58;22.33;;;;;;;2.94;57.02;102519.56;5113611;28;20043;-64
2021/01/16 01:16:02;;;;;;;34.13;21.33;;;;;;;3.20;56.65;102517.47;5114485;28;20051;-64
2021/01/16 01:18:29;;;;;;;38.42;21.45;;;;;;;3.33;56.53;102519.25;5114448;28;20048;-61
2021/01/16 01:20:55;;;;;;;35.10;22.23;;;;;;;3.26;56.47;102515.78;5114610;28;20063;-62
2021/01/16 01:23:22;;;;;;;35.80;21.95;;;;;;;2.95;57.08;102519.31;5095945;28;20066;-64
2021/01/16 01:25:49;;;;;;;40.33;22.33;;;;;;;3.07;56.92;102511.28;5095648;28;20055;-63
2021/01/16 01:28:16;;;;;;;33.67;20.48;;;;;;;3.05;56.96;102505.25;5114427;28;20402;-64
2021/01/16 01:30:43;;;;;;;37.25;22.33;;;;;;;3.02;57.59;102502.94;5113728;28;20055;-64
2021/01/16 01:33:15;;;;;;;35.90;21.58;;;;;;;2.84;57.45;102505.59;5113798;28;20040;-63
2021/01/16 01:35:43;;;;;;;35.17;21.02;;;;;;;2.58;58.46;102511.19;5096580;28;20410;-63
2021/01/16 01:42:41;;;;;;;36.13;21.67;;;;;;;2.90;57.69;102507.41;5113795;28;20387;-63
2021/01/16 01:45:11;;;;;;;32.72;20.35;;;;;;;2.59;58.46;102513.69;5113838;28;20047;-63
2021/01/16 01:47:39;;;;;;;34.03;19.73;;;;;;;2.45;59.21;102513.94;5096171;28;20475;-64
2021/01/16 01:50:11;;;;;;;32.38;20.00;;;;;;;2.38;58.99;102524.88;5114234;28;20055;-63
2021/01/16 01:52:39;;;;;;;36.00;20.25;;;;;;;2.24;59.87;102524.09;5114478;28;20398;-63
2021/01/16 01:59:36;;;;;;;37.40;20.90;;;;;;;2.02;60.51;102524.59;5096243;28;20054;-63
2021/01/16 02:02:06;;;;;;;31.23;19.80;;;;;;;2.06;60.21;102523.94;5096938;28;20055;-66
2021/01/16 02:04:37;;;;;;;32.15;19.77;;;;;;;2.25;59.66;102530.34;5114085;28;20415;-64
2021/01/16 02:07:23;;;;;;;35.58;20.73;;;;;;;2.25;59.94;102527.63;5113732;28;20063;-64
2021/01/16 02:14:03;;;;;;;37.05;20.20;;;;;;;1.98;60.71;102521.44;5114727;28;20052;-67
2021/01/16 02:16:43;;;;;;;33.42;21.65;;;;;;;2.24;60.19;102515.94;5113636;28;20390;-65
2021/01/16 02:19:12;;;;;;;34.83;20.17;;;;;;;2.47;59.74;102507.25;5096141;28;20050;-63
2021/01/16 02:21:43;;;;;;;33.85;20.85;;;;;;;2.62;58.95;102494.19;5115095;28;20058;-67
2021/01/16 02:29:20;;;;;;;31.80;19.35;;;;;;;2.94;57.51;102486.88;5117574;28;20043;-64
2021/01/16 02:31:56;;;;;;;31.65;19.35;;;;;;;3.02;56.74;102482.00;5113847;28;20051;-66
2021/01/16 02:34:27;;;;;;;32.28;18.88;;;;;;;2.82;57.47;102483.22;5099093;28;20510;-64
2021/01/16 02:37:06;;;;;;;33.08;19.70;;;;;;;2.74;57.21;102480.72;5117638;28;20048;-65
2021/01/16 02:39:53;;;;;;;29.43;18.77;;;;;;;2.59;57.30;102485.63;5116073;28;20052;-67
2021/01/16 02:42:31;;;;;;;33.08;19.30;;;;;;;2.58;57.57;102478.53;5095455;28;20051;-67
2021/01/16 02:45:04;;;;;;;34.38;19.80;;;;;;;2.36;57.87;102480.75;5095505;28;20458;-67
2021/01/16 02:47:46;;;;;;;31.00;20.30;;;;;;;2.53;57.70;102470.22;5112771;28;20047;-63
2021/01/16 02:50:19;;;;;;;29.42;19.13;;;;;;;2.74;57.89;102478.00;5112587;28;20394;-66
2021/01/16 02:52:47;;;;;;;38.35;19.83;;;;;;;2.94;57.30;102481.44;5095087;28;20051;-64
2021/01/16 02:55:18;;;;;;;34.00;19.83;;;;;;;2.61;57.94;102483.53;5112411;28;20052;-64
2021/01/16 02:57:45;;;;;;;33.38;20.90;;;;;;;2.50;58.59;102487.78;5095186;28;20402;-64
2021/01/16 03:00:21;;;;;;;34.00;20.52;;;;;;;2.43;58.75;102491.56;5113211;28;20375;-66
2021/01/16 03:02:48;;;;;;;32.03;19.67;;;;;;;2.38;59.73;102491.41;5112926;28;20501;-66
2021/01/16 03:05:17;;;;;;;33.90;19.85;;;;;;;2.13;60.29;102489.41;5112738;28;20051;-66
2021/01/16 03:07:47;;;;;;;34.83;21.55;;;;;;;2.17;60.70;102490.66;5112725;28;20054;-66
2021/01/16 03:10:15;;;;;;;35.60;20.00;;;;;;;2.03;61.61;102499.91;5078876;28;20391;-64
2021/01/16 03:12:42;;;;;;;38.38;20.70;;;;;;;2.07;61.10;102503.03;5114863;28;20054;-66
2021/01/16 03:15:11;;;;;;;33.05;20.13;;;;;;;2.27;60.07;102503.78;5098514;28;20059;-64
2021/01/16 03:17:48;;;;;;;33.30;20.08;;;;;;;2.14;61.03;102498.41;5117167;28;20056;-64
2021/01/16 03:20:34;;;;;;;34.72;20.67;;;;;;;2.07;61.47;102508.47;5117316;28;20048;-64
2021/01/16 03:23:02;;;;;;;38.75;20.42;;;;;;;2.34;60.27;102512.75;5117273;28;20054;-66
2021/01/16 03:25:33;;;;;;;37.88;20.42;;;;;;;1.80;61.84;102518.56;5099982;28;20035;-65
2021/01/16 03:28:02;;;;;;;34.30;20.65;;;;;;;1.70;63.05;102518.16;5117137;28;20521;-65
2021/01/16 03:30:29;;;;;;;35.17;21.48;;;;;;;1.69;62.88;102512.94;5098976;28;20047;-66
2021/01/16 03:32:56;;;;;;;34.97;19.98;;;;;;;1.89;62.01;102514.56;5117186;28;20047;-64
2021/01/16 03:35:26;;;;;;;38.08;22.02;;;;;;;2.01;61.35;102515.59;5116514;28;20047;-65
2021/01/16 03:37:55;;;;;;;36.13;21.20;;;;;;;2.14;61.26;102510.09;5098950;28;20055;-66
2021/01/16 03:40:22;;;;;;;36.83;21.83;;;;;;;2.10;60.72;102510.75;5118522;28;20051;-64
2021/01/16 03:42:49;;;;;;;34.47;22.10;;;;;;;2.08;60.90;102508.25;5118219;28;20048;-64
2021/01/16 03:45:20;;;;;;;34.40;21.95;;;;;;;1.97;61.45;102511.63;5117083;28;20060;-64
2021/01/16 03:47:47;;;;;;;34.83;21.75;;;;;;;1.92;61.73;102507.84;5116886;28;20052;-66
2021/01/16 03:50:14;;;;;;;37.38;22.73;;;;;;;1.85;61.56;102505.16;5117008;28;20047;-67
2021/01/16 03:52:45;;;;;;;35.25;22.70;;;;;;;1.93;61.92;102507.66;5116236;28;20043;-67
2021/01/16 03:55:12;;;;;;;37.15;21.45;;;;;;;2.19;60.86;102495.88;5116621;28;20126;-67
2021/01/16 03:57:39;;;;;;;32.85;20.92;;;;;;;2.30;59.78;102495.22;5115904;28;20055;-67
2021/01/16 04:00:10;;;;;;;37.15;22.45;;;;;;;1.98;60.12;102490.72;5098500;28;20050;-66
2021/01/16 04:02:37;;;;;;;38.28;21.58;;;;;;;2.17;59.85;102490.66;5116703;28;20502;-66
2021/01/16 04:05:06;;;;;;;39.05;21.48;;;;;;;2.24;59.71;102483.31;5116310;28;20043;-66
2021/01/16 04:07:33;;;;;;;37.47;21.55;;;;;;;2.27;59.05;102476.59;5116827;28;20059;-67
2021/01/16 04:10:01;;;;;;;36.10;21.55;;;;;;;2.11;59.58;102477.09;5116641;28;20051;-66
2021/01/16 04:12:28;;;;;;;33.28;20.27;;;;;;;2.31;59.14;102469.69;5116661;28;20052;-66
2021/01/16 04:14:55;;;;;;;32.90;19.90;;;;;;;2.39;59.18;102469.41;5116857;28;20040;-65
2021/01/16 04:17:23;;;;;;;32.58;20.65;;;;;;;2.39;58.39;102468.59;5115177;28;20058;-68
2021/01/16 04:19:49;;;;;;;37.22;21.25;;;;;;;2.39;58.77;102463.16;5097697;28;20161;-67
2021/01/16 04:22:16;;;;;;;35.15;21.17;;;;;;;2.45;58.37;102463.13;5114932;28;20399;-66
2021/01/16 04:24:43;;;;;;;35.40;21.15;;;;;;;2.53;58.56;102454.69;5097685;28;20048;-66
2021/01/16 04:27:10;;;;;;;32.85;20.63;;;;;;;2.53;58.38;102462.88;5115789;28;20044;-68
2021/01/16 04:29:37;;;;;;;33.47;20.10;;;;;;;2.66;58.31;102459.22;5114769;28;20059;-65
2021/01/16 04:32:04;;;;;;;33.10;21.05;;;;;;;2.46;58.46;102462.06;5115931;28;20043;-68
2021/01/16 04:34:32;;;;;;;32.03;19.63;;;;;;;2.45;58.49;102465.00;5099743;28;20051;-68
2021/01/16 04:36:58;;;;;;;35.00;21.15;;;;;;;2.59;57.99;102464.72;5117909;28;20051;-64
2021/01/16 04:39:25;;;;;;;31.02;19.52;;;;;;;2.44;57.90;102460.63;5115329;28;20047;-65
2021/01/16 04:41:53;;;;;;;34.28;20.85;;;;;;;2.42;57.90;102458.13;5115425;28;20391;-63
2021/01/16 04:44:21;;;;;;;33.65;21.08;;;;;;;2.34;58.33;102452.13;5114911;28;20052;-65
2021/01/16 04:46:50;;;;;;;32.88;20.85;;;;;;;2.45;58.44;102444.09;5098976;28;20051;-66
2021/01/16 04:49:18;;;;;;;34.10;21.20;;;;;;;2.33;58.48;102445.84;5097512;28;20059;-65
2021/01/16 04:51:48;;;;;;;35.25;20.95;;;;;;;2.16;59.02;102434.59;5097007;28;20063;-65
2021/01/16 04:54:16;;;;;;;35.97;20.77;;;;;;;2.40;58.54;102427.59;5097856;28;20051;-68
2021/01/16 04:56:45;;;;;;;32.17;20.77;;;;;;;2.49;57.54;102428.19;5115013;28;20051;-66
2021/01/16 04:59:13;;;;;;;33.13;20.63;;;;;;;2.29;57.73;102414.69;5098100;27;20395;-66
2021/01/16 05:01:40;;;;;;;33.95;20.08;;;;;;;2.41;58.28;102423.81;5114827;28;20043;-63
2021/01/16 05:04:08;;;;;;;36.55;21.55;;;;;;;2.21;58.71;102414.94;5097181;28;20043;-68
2021/01/16 05:06:39;;;;;;;36.92;21.50;;;;;;;2.24;58.39;102409.91;5114859;28;20070;-66
2021/01/16 05:09:06;;;;;;;34.97;21.40;;;;;;;2.42;57.88;102394.75;5114980;28;20051;-66
2021/01/16 05:11:45;;;;;;;35.55;22.08;;;;;;;2.36;nan;102399.16;5114804;28;20055;-64
2021/01/16 05:14:17;;;;;;;34.42;20.88;;;;;;;2.32;58.35;102386.25;5097906;28;20399;-64
2021/01/16 05:16:56;;;;;;;36.15;22.05;;;;;;;2.27;57.74;102395.03;5114931;28;20391;-66
2021/01/16 05:19:32;;;;;;;34.85;20.60;;;;;;;2.18;58.25;102399.06;5114185;28;20052;-67
2021/01/16 05:21:59;;;;;;;32.17;20.83;;;;;;;2.28;58.05;102391.28;5114202;28;20059;-66
2021/01/16 05:24:27;;;;;;;33.00;20.63;;;;;;;2.43;57.65;102389.09;5114289;28;20047;-65
2021/01/16 05:26:54;;;;;;;31.15;20.08;;;;;;;2.53;57.42;102394.88;5113935;28;20070;-66
2021/01/16 05:29:24;;;;;;;32.97;20.95;;;;;;;2.51;57.35;102399.69;5114662;28;20048;-66
2021/01/16 05:31:53;;;;;;;32.25;20.17;;;;;;;2.60;56.68;102409.25;5114219;28;20483;-66
2021/01/16 05:34:22;;;;;;;33.95;19.80;;;;;;;2.45;57.64;102410.63;5113504;28;20058;-67
2021/01/16 05:36:50;;;;;;;31.50;20.35;;;;;;;2.46;57.63;102398.72;5096038;28;20047;-66
2021/01/16 05:39:19;;;;;;;30.90;20.65;;;;;;;2.56;57.07;102399.06;5114323;28;20059;-66
2021/01/16 05:41:46;;;;;;;35.60;21.02;;;;;;;2.56;57.18;102393.59;5114394;28;20059;-66
2021/01/16 05:44:15;;;;;;;32.42;20.20;;;;;;;2.72;56.99;102398.53;5095932;28;20066;-66
2021/01/16 05:46:45;;;;;;;31.58;20.27;;;;;;;2.68;56.29;102389.13;5113988;28;20044;-65
2021/01/16 05:49:21;;;;;;;29.45;19.20;;;;;;;2.57;56.85;102395.25;5113234;28;20043;-66
2021/01/16 05:51:48;;;;;;;;;;;;;;;2.58;56.50;102388.78;5114133;28;20380;-66
2021/01/16 05:54:16;;;;;;;32.13;19.88;;;;;;;2.39;56.82;102387.03;5113181;28;19920;-64
2021/01/16 05:56:44;;;;;;;31.13;18.73;;;;;;;2.35;57.01;102400.22;5113895;28;20039;-65
2021/01/16 05:59:20;;;;;;;30.58;19.58;;;;;;;2.38;57.08;102398.94;5113974;28;20482;-66
2021/01/16 06:01:50;;;;;;;29.40;19.35;;;;;;;2.43;57.03;102407.28;5113837;28;20063;-64
2021/01/16 06:04:19;;;;;;;30.88;19.23;;;;;;;2.46;56.92;102409.59;5113643;28;20402;-67
2021/01/16 06:06:47;;;;;;;29.00;18.17;;;;;;;2.58;56.51;102413.28;5113584;28;20055;-64
2021/01/16 06:13:48;;;;;;;31.70;18.35;;;;;;;2.43;56.06;102402.69;5113566;28;20052;-63
2021/01/16 06:16:17;;;;;;;26.98;17.55;;;;;;;2.23;56.77;102405.50;5113491;28;20505;-65
2021/01/16 06:18:57;;;;;;;26.83;17.93;;;;;;;2.39;56.34;102400.63;5114179;28;20051;-64
2021/01/16 06:21:28;;;;;;;28.92;18.20;;;;;;;2.43;56.75;102397.25;5096747;28;20056;-64
2021/01/16 06:23:57;;;;;;;32.50;18.75;;;;;;;2.36;57.07;102396.44;5096315;28;20055;-68
2021/01/16 06:30:58;;;;;;;31.00;18.60;;;;;;;2.36;57.41;102390.16;5115170;28;20032;-65
2021/01/16 06:33:30;;;;;;;30.98;18.50;;;;;;;2.28;57.35;102391.28;5113573;28;20394;-66
2021/01/16 06:36:03;;;;;;;31.88;18.73;;;;;;;2.34;57.85;102378.72;5112730;28;20406;-67
2021/01/16 06:38:34;;;;;;;30.27;18.45;;;;;;;2.24;57.59;102377.28;5094817;28;20510;-64
2021/01/16 06:45:28;;;;;;;29.55;17.95;;;;;;;2.12;58.18;102365.44;5113213;28;20048;-63
2021/01/16 06:48:00;;;;;;;32.33;18.00;;;;;;;2.10;58.07;102364.81;5115578;28;20055;-64
2021/01/16 06:50:34;;;;;;;29.25;18.55;;;;;;;2.23;58.12;102362.00;5116477;28;20047;-64
2021/01/16 06:53:01;;;;;;;29.20;18.58;;;;;;;2.09;58.12;102351.47;5099407;28;20056;-64
2021/01/16 07:00:00;;;;;;;29.50;18.10;;;;;;;2.30;57.82;102349.22;5117504;28;20043;-65
2021/01/16 07:02:32;;;;;;;27.35;17.55;;;;;;;2.29;57.68;102344.84;5099490;28;20058;-65
2021/01/16 07:05:02;;;;;;;26.65;17.17;;;;;;;2.01;58.77;102346.25;5117467;28;20039;-66
2021/01/16 07:07:32;;;;;;;28.30;17.60;;;;;;;2.27;57.64;102332.50;5099300;28;20052;-63
2021/01/16 07:14:27;;;;;;;26.30;16.48;;;;;;;2.41;57.06;102339.53;5116640;28;20238;-65
2021/01/16 07:16:54;;;;;;;28.02;16.70;;;;;;;2.26;57.77;102337.13;5117003;28;20047;-61
2021/01/16 07:19:23;;;;;;;26.27;17.65;;;;;;;2.20;57.36;102338.00;5099122;28;20398;-66
2021/01/16 07:21:50;;;;;;;27.88;18.20;;;;;;;2.12;58.05;102334.72;5116854;28;20052;-63
2021/01/16 07:24:17;;;;;;;27.88;17.90;;;;;;;2.16;58.14;102335.94;5116904;28;20047;-65
2021/01/16 07:26:46;;;;;;;33.88;17.75;;;;;;;2.47;57.30;102329.66;5098694;28;20040;-65
2021/01/16 07:29:13;;;;;;;29.85;17.52;;;;;;;2.43;57.49;102331.97;5115779;28;20055;-64
2021/01/16 07:31:44;;;;;;;31.98;18.88;;;;;;;2.44;57.54;102327.38;5116622;28;20047;-64
2021/01/16 07:34:15;;;;;;;31.00;18.15;;;;;;;2.39;57.84;102328.03;5116599;28;20040;-65
2021/01/16 07:36:44;;;;;;;28.70;18.73;;;;;;;2.34;57.82;102329.78;5116473;28;20044;-64
2021/01/16 07:39:11;;;;;;;29.55;18.45;;;;;;;2.57;56.92;102324.53;5081327;28;20466;-65
2021/01/16 07:41:39;;;;;;;27.95;18.05;;;;;;;2.44;58.07;102330.09;5117138;28;20047;-63
2021/01/16 07:44:10;;;;;;;29.27;18.40;;;;;;;2.41;57.83;102325.13;5131829;27;20054;-65
2021/01/16 07:46:40;;;;;;;28.98;18.85;;;;;;;2.41;58.02;102315.06;5081759;28;20051;-64
2021/01/16 07:49:07;;;;;;;29.95;19.33;;;;;;;2.41;57.68;102312.34;5117022;28;20499;-65
2021/01/16 07:51:36;;;;;;;30.75;19.15;;;;;;;2.31;58.35;102314.72;5116340;28;20048;-63
2021/01/16 07:54:08;;;;;;;30.58;19.33;;;;;;;2.63;57.83;102304.63;5116376;28;20055;-65
2021/01/16 07:56:37;;;;;;;31.90;18.85;;;;;;;2.57;57.43;102305.50;5116459;28;20047;-63
2021/01/16 07:59:19;;;;;;;27.70;17.58;;;;;;;2.40;58.13;102294.38;5115682;28;20058;-65
2021/01/16 08:01:58;;;;;;;33.55;19.58;;;;;;;2.41;57.72;102289.78;5116355;28;20044;-64
2021/01/16 08:04:44;;;;;;;30.05;18.45;;;;;;;2.47;58.03;102284.28;5115681;28;20059;-64
2021/01/16 08:07:13;;;;;;;32.92;19.02;;;;;;;2.49;58.22;102276.72;5097608;28;20052;-64
2021/01/16 08:14:06;;;;;;;27.75;17.60;;;;;;;2.67;57.67;102275.94;5116411;28;20043;-64
2021/01/16 08:16:34;;;;;;;31.08;18.55;;;;;;;2.70;57.81;102272.75;5098095;28;20399;-64
2021/01/16 08:19:17;;;;;;;28.20;17.67;;;;;;;2.67;57.76;102276.75;5115591;28;20059;-64
2021/01/16 08:21:54;;;;;;;27.52;17.25;;;;;;;2.60;57.55;102275.16;5115036;28;20055;-63
2021/01/16 08:24:25;;;;;;;31.08;19.00;;;;;;;2.61;57.66;102266.78;5115760;28;20050;-65
2021/01/16 08:31:32;;;;;;;31.40;18.85;;;;;;;2.81;57.58;102255.69;5115888;28;20463;-63
2021/01/16 08:33:59;;;;;;;28.92;18.17;;;;;;;2.80;57.58;102248.59;5115519;28;20059;-65
2021/01/16 08:36:27;;;;;;;27.45;17.85;;;;;;;2.86;57.38;102248.53;5097971;28;20062;-64
2021/01/16 08:38:54;;;;;;;26.77;16.25;;;;;;;2.83;57.73;102248.97;5115281;28;20055;-64
2021/01/16 08:41:23;;;;;;;27.00;16.60;;;;;;;2.82;56.81;102235.59;5097755;28;20048;-64
2021/01/16 08:43:53;;;;;;;27.60;16.83;;;;;;;2.69;57.10;102231.13;5115475;28;20055;-64
2021/01/16 08:46:25;;;;;;;28.43;18.03;;;;;;;2.62;57.13;102240.41;5097311;28;20048;-64
2021/01/16 08:49:06;;;;;;;28.20;17.42;;;;;;;2.51;57.76;102230.28;5117370;28;20080;-63
2021/01/16 08:51:40;;;;;;;26.63;16.75;;;;;;;2.70;57.34;102231.97;5098204;28;20070;-66
2021/01/16 08:54:15;;;;;;;29.33;17.85;;;;;;;2.79;57.25;102222.47;5115965;28;20058;-66
2021/01/16 08:56:50;;;;;;;26.63;16.38;;;;;;;2.81;57.28;102225.75;5115029;28;20043;-66
2021/01/16 08:59:18;;;;;;;27.15;16.75;;;;;;;2.68;57.33;102224.03;5115149;28;20113;-68
2021/01/16 09:01:45;;;;;;;25.10;15.90;;;;;;;2.59;57.12;102227.25;5114537;28;20043;-67
2021/01/16 09:04:31;;;;;;;27.45;16.77;;;;;;;2.73;57.51;102220.63;5114414;28;20047;-67
2021/01/16 09:07:23;;;;;;;24.83;16.15;;;;;;;2.71;57.63;102229.00;5115035;28;20050;-65
2021/01/16 09:09:56;;;;;;;26.60;16.38;;;;;;;2.65;57.49;102229.09;5113842;28;20048;-67
2021/01/16 09:12:55;;;;;;;26.85;16.40;;;;;;;2.69;58.13;102233.84;5051466;28;20064;-67
2021/01/16 09:15:25;;;;;;;25.77;16.42;;;;;;;2.84;57.90;102239.75;5035707;28;20069;-66
2021/01/16 09:18:13;;;;;;;25.73;16.25;;;;;;;2.84;58.26;102244.38;5052004;28;20542;-67
2021/01/16 09:20:43;;;;;;;23.27;15.75;;;;;;;2.96;58.39;102242.56;5050759;28;20064;-65
2021/01/16 09:23:18;;;;;;;;;;;;;;;2.97;58.66;102250.50;5051007;28;20071;-67
2021/01/16 09:29:50;;;;;;;25.70;16.25;;;;;;;2.75;60.52;102251.16;5063507;28;20063;-64
2021/01/16 09:32:28;;;;;;;28.23;16.90;;;;;;;2.71;61.51;102255.38;5113567;28;20047;-66
2021/01/16 09:34:57;;;;;;;;;;;;;;;2.64;62.64;102262.75;5115084;28;20056;-65
2021/01/16 09:37:26;;;;;;;25.23;15.80;;;;;;;2.59;64.10;102262.59;5095751;28;19926;-64
2021/01/16 09:40:11;;;;;;;25.65;16.55;;;;;;;2.63;64.61;102261.97;5113831;28;20059;-66
2021/01/16 09:43:18;;;;;;;27.30;17.98;;;;;;;2.64;64.75;102262.75;5051651;28;20049;-65
2021/01/16 09:45:59;;;;;;;31.25;19.00;;;;;;;2.53;66.19;102266.22;5034995;28;20049;-66
2021/01/16 09:48:41;;;;;;;28.63;17.30;;;;;;;2.55;67.46;102264.09;5051045;28;20045;-66
2021/01/16 09:51:12;;;;;;;29.15;18.08;;;;;;;2.52;67.91;102257.25;5034936;28;20081;-67
2021/01/16 09:53:40;;;;;;;30.45;18.25;;;;;;;2.30;69.18;102251.34;5051417;28;20068;-65
2021/01/16 09:56:07;;;;;;;48.58;28.83;;;;;;;2.23;70.00;102255.19;5051099;28;20056;-65
2021/01/16 09:58:42;;;;;;;39.78;24.63;;;;;;;2.26;70.25;102252.88;5050940;28;20045;-64
2021/01/16 10:01:23;;;;;;;30.30;20.10;;;;;;;2.06;71.34;102252.16;5091108;28;20482;-64
2021/01/16 10:03:52;;;;;;;32.05;19.38;;;;;;;2.12;72.14;102251.31;5095678;28;20048;-64
2021/01/16 10:06:19;;;;;;;29.90;19.05;;;;;;;2.27;71.37;102248.25;5113472;28;20490;-64
2021/01/16 10:08:47;;;;;;;30.15;19.05;;;;;;;1.97;72.93;102252.66;5114605;28;20054;-64
2021/01/16 10:11:34;;;;;;;29.65;19.20;;;;;;;2.08;73.11;102241.06;5122547;28;20091;-66
2021/01/16 10:14:12;;;;;;;35.58;20.85;;;;;;;2.04;73.14;102246.13;5115006;28;20055;-66
2021/01/16 10:16:39;;;;;;;32.05;19.73;;;;;;;2.29;73.01;102229.81;5096345;28;20056;-67
2021/01/16 10:19:12;;;;;;;30.60;19.95;;;;;;;2.08;73.65;102233.75;5097349;28;20074;-66
2021/01/16 10:21:55;;;;;;;30.48;19.88;;;;;;;2.00;73.97;102225.88;5113998;28;20043;-62
2021/01/16 10:24:24;;;;;;;31.35;19.83;;;;;;;1.95;74.21;102217.53;5113225;28;20044;-64
2021/01/16 10:26:51;;;;;;;34.85;21.27;;;;;;;2.11;75.32;102214.28;5112843;28;20390;-63
2021/01/16 10:29:21;;;;;;;35.50;21.13;;;;;;;2.40;73.96;102212.78;5113753;28;20051;-63
2021/01/16 10:31:48;;;;;;;31.25;20.38;;;;;;;2.42;74.40;102209.84;5078924;28;20070;-69
2021/01/16 10:34:19;;;;;;;32.60;20.48;;;;;;;2.64;74.15;102208.38;5095688;28;20114;-66
2021/01/16 10:36:57;;;;;;;30.17;20.25;;;;;;;2.55;74.38;102198.81;5112774;28;20047;-63
2021/01/16 10:39:25;;;;;;;35.35;20.38;;;;;;;2.51;74.62;102197.63;5095157;28;20052;-70
2021/01/16 10:41:52;;;;;;;34.70;20.33;;;;;;;2.85;73.74;102188.88;5061702;28;20486;-66
2021/01/16 10:44:23;;;;;;;30.35;19.90;;;;;;;2.69;73.30;102184.88;5113215;28;20047;-68
2021/01/16 10:46:54;;;;;;;33.15;20.58;;;;;;;2.58;73.89;102185.63;5112876;28;20062;-64
2021/01/16 10:49:25;;;;;;;34.50;20.08;;;;;;;2.69;73.73;102179.44;5094812;28;20062;-66
2021/01/16 10:51:59;;;;;;;33.35;20.83;;;;;;;2.80;73.48;102173.25;5113368;28;20058;-66
2021/01/16 10:54:26;;;;;;;32.97;20.42;;;;;;;2.75;73.30;102153.22;5112799;28;20047;-67
2021/01/16 10:57:01;;;;;;;32.60;21.30;;;;;;;2.96;73.32;102158.19;5113302;28;20048;-65
2021/01/16 10:59:33;;;;;;;43.03;25.00;;;;;;;2.58;73.82;102146.72;5113312;28;20058;-63
2021/01/16 11:02:12;;;;;;;33.85;21.25;;;;;;;2.75;74.24;102131.47;5113240;28;20048;-67
2021/01/16 11:04:44;;;;;;;32.88;21.50;;;;;;;2.48;75.40;102124.63;5111946;28;20058;-69
2021/01/16 11:07:26;;;;;;;37.47;22.92;;;;;;;2.14;75.59;102116.00;5095391;28;20429;-68
2021/01/16 11:10:07;;;;;;;36.67;22.70;;;;;;;2.49;76.67;102107.28;5112912;28;20043;-64
2021/01/16 11:12:35;;;;;;;35.53;21.60;;;;;;;2.61;75.53;102094.59;5112934;28;20069;-64
2021/01/16 11:15:21;;;;;;;35.80;22.05;;;;;;;2.46;75.37;102100.41;5112672;28;20063;-65
2021/01/16 11:17:50;;;;;;;34.50;22.02;;;;;;;2.47;75.59;102087.63;5095410;28;20402;-63
2021/01/16 11:20:28;;;;;;;32.25;21.23;;;;;;;2.56;74.86;102083.56;5113008;28;20051;-68
2021/01/16 11:23:18;;;;;;;34.97;20.50;;;;;;;2.65;74.59;102077.56;5094293;28;20050;-63
2021/01/16 11:25:47;;;;;;;28.58;19.35;;;;;;;2.68;74.03;102066.25;5112800;28;20395;-69
2021/01/16 11:28:20;;;;;;;31.85;20.38;;;;;;;2.90;73.97;102064.69;5112611;28;20059;-67
2021/01/16 11:31:00;;;;;;;33.85;20.42;;;;;;;2.66;73.77;102057.50;5112798;28;20402;-64
2021/01/16 11:33:27;;;;;;;33.80;21.23;;;;;;;2.55;74.35;102051.97;5095917;28;20048;-68
2021/01/16 11:36:08;;;;;;;38.45;23.15;;;;;;;2.28;75.97;102041.41;5116561;28;20047;-64
2021/01/16 11:38:45;;;;;;;35.58;22.83;;;;;;;2.39;75.71;102042.53;5115957;28;20063;-66
2021/01/16 11:45:40;;;;;;;33.90;20.95;;;;;;;2.25;75.99;102022.00;5116462;28;20055;-64
2021/01/16 11:48:07;;;;;;;30.13;20.08;;;;;;;2.35;76.12;102016.06;5098180;28;20051;-66
2021/01/16 11:50:37;;;;;;;31.60;20.77;;;;;;;2.28;76.39;102010.69;5097986;28;20052;-67
2021/01/16 11:53:10;;;;;;;33.50;20.88;;;;;;;2.49;75.74;101993.91;5116498;28;20043;-65
2021/01/16 11:55:40;;;;;;;32.72;20.73;;;;;;;2.45;75.18;101994.59;5116413;28;20044;-64
2021/01/16 12:02:47;;;;;;;29.92;18.60;;;;;;;2.42;75.60;101937.94;5117435;28;20070;-68
2021/01/16 12:05:16;;;;;;;30.55;19.30;;;;;;;2.30;76.02;101911.53;5117198;28;20050;-68
2021/01/16 12:07:50;;;;;;;29.42;18.85;;;;;;;2.21;76.18;101906.66;5117728;28;20047;-63
2021/01/16 12:10:21;;;;;;;29.40;18.63;;;;;;;2.07;76.46;101922.31;5118003;28;20047;-64
2021/01/16 12:17:17;;;;;;;26.90;16.67;;;;;;;2.13;77.14;101947.72;5115783;28;20051;-63
2021/01/16 12:19:44;;;;;;;32.83;18.70;;;;;;;2.39;76.78;101938.41;5116195;28;20047;-62
2021/01/16 12:22:11;;;;;;;40.20;24.13;;;;;;;2.45;76.83;101946.47;5115035;28;20395;-63
2021/01/16 12:24:38;;;;;;;36.83;22.77;;;;;;;2.44;76.67;101949.44;5114942;28;20043;-63
2021/01/16 12:31:46;;;;;;;24.48;15.82;;;;;;;2.44;77.20;101941.28;5116283;28;20035;-67
2021/01/16 12:34:15;;;;;;;26.45;15.88;;;;;;;2.27;78.08;101944.63;5096189;28;20483;-68
2021/01/16 12:36:44;;;;;;;23.10;15.75;;;;;;;2.40;77.71;101940.06;5097816;28;20043;-67
2021/01/16 12:39:11;;;;;;;;;;;;;;;2.30;77.51;101933.28;5081190;28;20414;-64
2021/01/16 12:41:38;;;;;;;23.42;14.70;;;;;;;2.33;77.78;101928.44;5115360;28;19926;-63
2021/01/16 12:48:41;;;;;;;21.45;14.35;;;;;;;2.37;77.93;101894.31;5115339;28;20060;-63
2021/01/16 12:51:17;;;;;;;27.63;15.68;;;;;;;2.36;77.46;101881.78;5112736;28;20121;-65
2021/01/16 12:53:44;;;;;;;;;;;;;;;2.32;77.26;101883.31;5114505;28;20502;-63